Portada
METAR-TAF:

METAR-TAF

Aeropuertos :

Fairfield Municipal Airport

Fairfield, Iowa, Estados Unidos

latitud: 41-03N, longitud: 091-59W, altitud: 244 m

Observación

El informe se hizo hace 17 minutos, a las 07:55 UTC
Viento 3 kt del este-noreste
Temperatura 13°C
Humedad 88%
Presión 1025 hPa
Visibilidad: 16.1 km
Cielo nuboso a una altura de 12000 ft

METAR: KFFL 310755Z AUTO 07003KT 10SM BKN120 13/11 A3027 RMK A01

Hora: 03:12 (08:12 UTC)


TAF: falta

Observaciones y pronósticos meteorológicos de más de 4000 aeropuertos (mensajes METAR y TAF).

Los puntos amarillos y rojos representan las estaciones disponibles.

Ponga el ratón en el punto deseado para ver el nombre de la estación.

Haga clic para ver las observaciones y los pronósticos meteorológicos.

Para cambiar el mapa : haga clic en los botones verdes con una cruz de color negro para hacer un zoom, en el botón verde con un guión para alejar o en las flechas verdes para mapas adyacentes.


METAR-TAF: